Portada
METAR-TAF:

METAR-TAF

Aeroports :

Bangkok, Tailàndia

latitud: 13-54-45N, longitud: 100-36-24E, altitud: 4 m

Observació

L'informe es va fer fa 22 minuts, a les 04:00 UTC
Vent 8 kt del Sud/Sud-Oest, variant entre Sud-Est i Oest/Sud-Oest
Temperatura 34°C
Humitat 60%
Pressió 1011 hPa
Visibilitat 10 km o més
Núvols disperses a una alçada de 3000 ft

METAR: VTBD 300400Z 20008KT 140V250 9999 SCT030 34/25 Q1011 NOSIG

Hora: 11:22 (04:22 UTC)

Pronòstic

L'informe es va fer fa 5 hores i 22 minuts, a les 23:00 UTC
Pronòstic vàlid del 30 a les 00 UTC al 31 a les 06 UTC
Vent 10 kt del Sud
Visibilitat 10 km o més
Escasses núvols a una alçada de 2500 ft

TAF: VTBD 292300Z 3000/3106 18010KT 9999 FEW025

Observacions i pronòstics meteorològics de més de 4000 aeroports (METAR i TAF).

Les estacions disponibles són els punts grocs i vermells al mapa.

Posi el ratolí al punt desitjat per veure el nom de l'estació.

Feu clic per veure les observacions i els pronòstics meteorològics.

Per canviar el mapa: feu clic els botons verds amb una creu de color negre per apropar; al botó verd amb un guió per allunyar la imatge; o en les fletxes verdes per a mapes adjacents.


METAR-TAF: